Fasa Airport

Airport
ICAO code: 
OISF
IATA Code: 
FAZ
Summary
ICAO Region: 
MID
Territory: 
Location: 
Fasa, Fars
Serving: 
Fasa
Elevation: 
4261 ft
Coordinates: 
Aerial View: 
28° 53' 53.599" N, 53° 43' 15.279" E
Metar
Observation
OISF 261900Z 31006KT CAVOK 26/M03 Q1009 A2980
Station
Fasa
Date/Time
2022-06-26 19:00:00
Wind direction
310°
Wind speed
06 kts
Lowest cloud amount
clouds and visibility OK
Temperature
26°C
Dew point
-3°C
Humidity
14%
QNH
1009 hPa
Weather condition
n/a

Airport serving Fast in the Far province of Iran.

Climatology

Warm Semi-arid climate (Köppen climate classification Bsh).

Runways

Designator Length Width Surface Rops
14/32 1982 30 ASP No/No
Airport map: 
Aerial View: 

SKYbrary Partners:

Safety knowledge contributed by: